Time;durP1;ratioP1;P1;durP2;ratioP2;P2;SDS_P1;SDS_P2;PMS_P1;PMS_P2;Temp;Humidity;BMP_temperature;BMP_pressure;BME280_temperature;BME280_humidity;BME280_pressure;Samples;Min_cycle;Max_cycle;Signal;HPM_P1;HPM_P2
2022/04/25 00:00:43;;;;;;;34.60;23.15;;;;;;;10.89;100.00;98331.81;5127716;27;20059;-50
2022/04/25 00:03:27;;;;;;;32.22;22.63;;;;;;;10.81;100.00;98333.94;5126991;27;20051;-50
2022/04/25 00:06:12;;;;;;;33.75;22.65;;;;;;;10.87;100.00;98331.88;5127292;27;20549;-50
2022/04/25 00:08:56;;;;;;;29.55;20.38;;;;;;;10.91;100.00;98335.19;5126285;27;20078;-50
2022/04/25 00:11:41;;;;;;;28.00;20.33;;;;;;;10.88;100.00;98333.56;5125779;27;20039;-50
2022/04/25 00:14:25;;;;;;;32.05;21.80;;;;;;;10.91;100.00;98330.78;5126546;27;20542;-51
2022/04/25 00:17:10;;;;;;;29.80;21.45;;;;;;;10.85;100.00;98335.47;5126433;27;20039;-50
2022/04/25 00:19:54;;;;;;;34.42;20.95;;;;;;;10.87;100.00;98336.25;5126040;27;20046;-51
2022/04/25 00:22:38;;;;;;;28.83;20.55;;;;;;;10.86;100.00;98337.19;5126486;27;20047;-51
2022/04/25 00:25:25;;;;;;;32.33;22.00;;;;;;;10.90;100.00;98336.13;5126139;27;20599;-51
2022/04/25 00:28:10;;;;;;;30.88;21.27;;;;;;;10.86;100.00;98337.19;5126689;27;20066;-51
2022/04/25 00:30:55;;;;;;;31.02;20.92;;;;;;;10.84;100.00;98329.41;5127433;27;20047;-51
2022/04/25 00:33:39;;;;;;;29.55;20.55;;;;;;;10.89;100.00;98342.28;5126168;27;20900;-50
2022/04/25 00:36:24;;;;;;;29.85;21.52;;;;;;;10.87;100.00;98337.09;5125668;27;20661;-51
2022/04/25 00:39:09;;;;;;;32.83;24.02;;;;;;;10.84;100.00;98334.63;5127837;27;20039;-50
2022/04/25 00:41:53;;;;;;;34.75;23.80;;;;;;;10.83;100.00;98332.94;5126325;27;20635;-51
2022/04/25 00:44:38;;;;;;;32.70;23.02;;;;;;;10.81;100.00;98340.03;5126521;27;20039;-51
2022/04/25 00:47:23;;;;;;;30.17;21.92;;;;;;;10.81;100.00;98340.03;5125960;27;20035;-51
2022/04/25 00:50:09;;;;;;;28.70;20.52;;;;;;;10.74;100.00;98341.25;5125988;27;20490;-50
2022/04/25 00:52:53;;;;;;;29.70;20.55;;;;;;;10.73;100.00;98335.19;5105271;27;20055;-50
2022/04/25 00:55:37;;;;;;;27.27;18.92;;;;;;;10.80;100.00;98340.13;5126005;27;20595;-51
2022/04/25 00:58:22;;;;;;;27.15;19.40;;;;;;;10.81;100.00;98342.66;5108996;27;20043;-51
2022/04/25 01:01:06;;;;;;;28.83;20.23;;;;;;;10.76;100.00;98335.03;5126696;27;20078;-50
2022/04/25 01:03:51;;;;;;;26.40;19.67;;;;;;;10.81;100.00;98344.41;5126114;27;20051;-50
2022/04/25 01:06:36;;;;;;;24.75;19.45;;;;;;;10.85;100.00;98345.97;5124726;27;20082;-50
2022/04/25 01:09:20;;;;;;;25.77;19.25;;;;;;;10.75;100.00;98335.94;5126124;27;20043;-50
2022/04/25 01:12:05;;;;;;;28.73;22.77;;;;;;;10.64;100.00;98345.25;5126530;27;20044;-51
2022/04/25 01:15:00;;;;;;;28.67;21.00;;;;;;;10.64;100.00;98343.47;5125993;27;20039;-51
2022/04/25 01:17:45;;;;;;;26.60;19.50;;;;;;;10.57;100.00;98339.47;5124902;27;20074;-51
2022/04/25 01:20:29;;;;;;;27.27;21.15;;;;;;;10.46;100.00;98341.72;5125641;27;20401;-51
2022/04/25 01:29:29;;;;;;;29.85;21.30;;;;;;;10.51;100.00;98339.75;5125439;27;20039;-51
2022/04/25 01:32:15;;;;;;;27.48;20.60;;;;;;;10.50;100.00;98328.44;5125593;27;20051;-50
2022/04/25 01:34:59;;;;;;;27.98;19.85;;;;;;;10.54;100.00;98323.91;5125779;27;20413;-50
2022/04/25 01:37:44;;;;;;;30.83;22.48;;;;;;;10.53;100.00;98324.84;5124556;27;20596;-51
2022/04/25 01:40:28;;;;;;;28.05;20.70;;;;;;;10.59;100.00;98321.88;5125256;27;20326;-51
2022/04/25 01:43:13;;;;;;;28.58;21.17;;;;;;;10.52;100.00;98315.25;5125578;27;20095;-50
2022/04/25 01:45:58;;;;;;;34.08;23.33;;;;;;;10.56;100.00;98319.41;5125561;27;20051;-51
2022/04/25 01:48:42;;;;;;;32.83;22.40;;;;;;;10.53;100.00;98320.44;5125116;27;20493;-51
2022/04/25 01:51:27;;;;;;;29.75;21.23;;;;;;;10.50;100.00;98323.19;5124717;27;20039;-51
2022/04/25 01:54:12;;;;;;;29.05;21.10;;;;;;;10.58;100.00;98321.97;5124840;27;20505;-50
2022/04/25 01:56:57;;;;;;;33.38;23.17;;;;;;;10.51;100.00;98324.88;5125236;27;20055;-51
2022/04/25 01:59:41;;;;;;;32.13;22.42;;;;;;;10.41;100.00;98326.25;5125306;27;20118;-52
2022/04/25 02:02:25;;;;;;;36.42;23.92;;;;;;;10.27;100.00;98321.69;5124354;27;20055;-51
2022/04/25 02:05:09;;;;;;;33.30;23.13;;;;;;;10.43;100.00;98327.03;5124053;27;20133;-51
2022/04/25 02:07:54;;;;;;;31.23;22.48;;;;;;;10.45;100.00;98322.56;5124744;27;20060;-51
2022/04/25 02:10:39;;;;;;;32.75;23.50;;;;;;;10.47;100.00;98323.34;5124509;27;20051;-51
2022/04/25 02:13:23;;;;;;;33.38;24.17;;;;;;;10.44;100.00;98317.41;5124245;27;20050;-51
2022/04/25 02:16:08;;;;;;;34.97;22.90;;;;;;;10.42;100.00;98314.84;5125172;27;20047;-51
2022/04/25 02:18:53;;;;;;;35.38;25.63;;;;;;;10.46;100.00;98320.78;5124024;27;20051;-51
2022/04/25 02:21:38;;;;;;;32.80;22.25;;;;;;;10.53;100.00;98324.84;5123159;27;20599;-50
2022/04/25 02:24:23;;;;;;;32.10;22.20;;;;;;;10.57;100.00;98330.75;5124587;27;20059;-51
2022/04/25 02:27:07;;;;;;;36.80;24.45;;;;;;;10.48;100.00;98327.66;5124753;27;20058;-51
2022/04/25 02:29:57;;;;;;;39.53;26.05;;;;;;;10.47;100.00;98333.81;5123944;27;20397;-50
2022/04/25 02:32:42;;;;;;;46.20;28.45;;;;;;;10.35;100.00;98331.78;5123716;27;20055;-51
2022/04/25 02:35:26;;;;;;;48.35;28.90;;;;;;;10.36;100.00;98338.69;5124401;27;20642;-51
2022/04/25 02:38:11;;;;;;;38.25;25.23;;;;;;;10.33;100.00;98336.22;5124421;27;20893;-51
2022/04/25 02:41:04;;;;;;;39.13;23.02;;;;;;;10.36;100.00;98338.69;5124407;27;20059;-51
2022/04/25 02:43:49;;;;;;;38.58;24.95;;;;;;;10.37;100.00;98339.56;5123773;27;20088;-49
2022/04/25 02:46:33;;;;;;;37.70;23.00;;;;;;;10.32;100.00;98328.47;5123387;27;20043;-51
2022/04/25 02:49:17;;;;;;;39.00;23.73;;;;;;;10.36;100.00;98335.25;5123883;27;20053;-51
2022/04/25 02:52:03;;;;;;;37.90;24.23;;;;;;;10.29;100.00;98326.81;5124029;27;20054;-50
2022/04/25 02:54:47;;;;;;;39.53;25.25;;;;;;;10.40;100.00;98337.66;5123823;27;20618;-51
2022/04/25 02:57:32;;;;;;;43.42;24.75;;;;;;;10.39;100.00;98335.09;5123572;27;20031;-50
2022/04/25 03:00:16;;;;;;;37.60;24.80;;;;;;;10.38;100.00;98329.03;5123858;27;20540;-50
2022/04/25 03:03:01;;;;;;;40.05;25.00;;;;;;;10.35;100.00;98334.41;5123840;27;20039;-50
2022/04/25 03:05:50;;;;;;;38.20;24.73;;;;;;;10.25;100.00;98333.09;5123515;27;20059;-50
2022/04/25 03:08:36;;;;;;;42.75;27.15;;;;;;;10.21;100.00;98344.66;5124257;27;20817;-50
2022/04/25 03:11:20;;;;;;;49.42;30.20;;;;;;;9.79;100.00;98336.06;5123972;27;20389;-50
2022/04/25 03:14:05;;;;;;;36.85;23.45;;;;;;;9.78;100.00;98331.78;5123616;27;20047;-50
2022/04/25 03:16:49;;;;;;;18.77;14.48;;;;;;;9.61;100.00;98329.03;5123346;27;20568;-50
2022/04/25 03:19:34;;;;;;;16.90;12.48;;;;;;;9.86;100.00;98339.25;5123234;27;20198;-50
2022/04/25 03:22:18;;;;;;;12.55;10.50;;;;;;;9.93;100.00;98343.28;5123959;27;20107;-51
2022/04/25 03:25:03;;;;;;;12.43;9.95;;;;;;;9.80;100.00;98357.84;5123758;27;20509;-51
2022/04/25 03:27:47;;;;;;;12.13;10.05;;;;;;;9.87;100.00;98354.03;5124097;27;20078;-51
2022/04/25 03:30:32;;;;;;;11.23;10.05;;;;;;;9.96;100.00;98363.22;5121463;27;20092;-51
2022/04/25 03:33:16;;;;;;;11.48;10.27;;;;;;;9.81;100.00;98373.47;5123476;27;20047;-51
2022/04/25 03:36:01;;;;;;;12.38;11.10;;;;;;;9.77;100.00;98371.88;5123624;27;20046;-51
2022/04/25 03:38:45;;;;;;;13.88;11.75;;;;;;;9.58;100.00;98371.84;5124160;27;20051;-51
2022/04/25 03:41:31;;;;;;;13.38;11.13;;;;;;;9.74;100.00;98372.03;5123941;27;20047;-51
2022/04/25 03:44:16;;;;;;;10.05;9.05;;;;;;;9.72;100.00;98373.88;5124437;27;20039;-51
2022/04/25 03:47:00;;;;;;;10.68;9.45;;;;;;;9.65;100.00;98382.91;5124791;28;20047;-51
2022/04/25 03:49:44;;;;;;;13.52;9.80;;;;;;;9.50;100.00;98384.41;5105265;28;20051;-51
2022/04/25 03:52:29;;;;;;;12.02;10.77;;;;;;;9.29;100.00;98380.94;5124241;28;20043;-51
2022/04/25 03:58:19;;;;;;;16.88;12.30;;;;;;;9.21;100.00;98390.88;5124744;28;20054;-51
2022/04/25 04:01:03;;;;;;;15.60;12.25;;;;;;;9.18;100.00;98391.00;5124659;28;20502;-51
2022/04/25 04:03:48;;;;;;;13.35;11.60;;;;;;;9.18;100.00;98391.00;5124619;28;20043;-51
2022/04/25 04:06:32;;;;;;;13.38;10.35;;;;;;;9.34;100.00;98394.66;5123545;28;20061;-51
2022/04/25 04:12:23;;;;;;;13.75;11.18;;;;;;;8.73;100.00;98394.56;5122821;28;20047;-51
2022/04/25 04:15:08;;;;;;;15.07;10.07;;;;;;;9.01;100.00;98407.38;5123459;28;20051;-51
2022/04/25 04:17:53;;;;;;;12.55;10.13;;;;;;;9.18;100.00;98405.81;5123735;28;20051;-52
2022/04/25 04:20:38;;;;;;;12.05;10.25;;;;;;;9.17;100.00;98411.97;5123695;28;20051;-51
2022/04/25 04:23:22;;;;;;;12.48;11.25;;;;;;;8.87;100.00;98413.16;5120481;28;20051;-51
2022/04/25 04:26:06;;;;;;;12.88;10.50;;;;;;;8.72;100.00;98410.31;5122116;28;20394;-51
2022/04/25 04:28:50;;;;;;;11.98;10.77;;;;;;;8.85;100.00;98417.59;5121762;28;20046;-51
2022/04/25 04:31:35;;;;;;;13.68;10.25;;;;;;;8.72;100.00;98423.34;5121837;28;20039;-50
2022/04/25 04:34:19;;;;;;;11.57;9.18;;;;;;;9.10;100.00;98430.50;5121149;28;20054;-51
2022/04/25 04:37:04;;;;;;;10.25;8.57;;;;;;;9.20;100.00;98430.97;5121501;28;20554;-51
2022/04/25 04:39:48;;;;;;;10.77;8.93;;;;;;;9.29;100.00;98434.97;5122131;28;20231;-51
2022/04/25 04:42:35;;;;;;;10.02;8.52;;;;;;;9.40;100.00;98437.16;5121584;28;20084;-51
2022/04/25 04:45:20;;;;;;;12.43;10.18;;;;;;;8.69;100.00;98437.38;5123892;27;20114;-51
2022/04/25 04:48:05;;;;;;;11.65;9.43;;;;;;;8.57;100.00;98446.53;5125110;27;20039;-51
2022/04/25 04:50:55;;;;;;;9.65;8.40;;;;;;;8.91;100.00;98447.81;5124727;27;20070;-51
2022/04/25 04:53:40;;;;;;;10.43;7.88;;;;;;;9.08;100.00;98441.91;5124840;27;20313;-51
2022/04/25 04:56:24;;;;;;;12.18;9.27;;;;;;;9.18;100.00;98455.47;5124893;27;20050;-50
2022/04/25 04:59:09;;;;;;;9.02;7.55;;;;;;;9.19;100.00;98454.53;5124155;27;20393;-51
2022/04/25 05:01:53;;;;;;;11.10;8.60;;;;;;;9.12;100.00;98460.00;5123986;27;20043;-51
2022/04/25 05:04:38;;;;;;;12.10;9.40;;;;;;;9.03;100.00;98457.75;5122600;27;20682;-51
2022/04/25 05:07:23;;;;;;;12.68;9.52;;;;;;;9.03;100.00;98462.97;5122738;27;20043;-50
2022/04/25 05:10:08;;;;;;;11.55;9.90;;;;;;;8.92;100.00;98459.97;5123698;27;20039;-51
2022/04/25 05:12:57;;;;;;;9.50;8.00;;;;;;;9.17;100.00;98469.44;5123508;27;20039;-51
2022/04/25 05:15:42;;;;;;;11.45;8.65;;;;;;;8.97;100.00;98471.09;5122215;27;20039;-51
2022/04/25 05:18:27;;;;;;;9.80;8.55;;;;;;;8.97;100.00;98478.06;5123456;27;20055;-51
2022/04/25 05:21:13;;;;;;;10.27;8.50;;;;;;;8.95;100.00;98480.72;5123296;27;20039;-49
2022/04/25 05:23:58;;;;;;;12.13;6.90;;;;;;;8.85;100.00;98484.63;5124548;27;20071;-51
2022/04/25 05:26:42;;;;;;;8.40;7.28;;;;;;;8.97;100.00;98481.53;5123175;27;20043;-51
2022/04/25 05:29:26;;;;;;;7.78;6.95;;;;;;;8.90;100.00;98487.88;5124207;27;20520;-51
2022/04/25 05:32:11;;;;;;;10.75;9.00;;;;;;;9.00;100.00;98484.03;5124999;27;20050;-50
2022/04/25 05:34:55;;;;;;;12.10;7.50;;;;;;;9.11;100.00;98474.00;5124231;27;20055;-50
2022/04/25 05:37:40;;;;;;;10.98;7.95;;;;;;;9.00;100.00;98478.81;5123170;27;20043;-50
2022/04/25 05:40:27;;;;;;;10.73;6.88;;;;;;;8.98;100.00;98466.72;5124589;27;20051;-51
2022/04/25 05:43:12;;;;;;;9.00;7.65;;;;;;;9.09;100.00;98486.25;5124194;27;20568;-51
2022/04/25 05:45:56;;;;;;;10.05;8.15;;;;;;;9.18;100.00;98486.81;5123708;27;20049;-50
2022/04/25 05:52:02;;;;;;;9.32;7.10;;;;;;;9.13;100.00;98482.63;5018549;28;20098;-50
2022/04/25 05:54:46;;;;;;;8.80;7.90;;;;;;;8.99;100.00;98487.53;5123885;27;20063;-50
2022/04/25 05:57:31;;;;;;;10.77;8.15;;;;;;;8.92;100.00;98483.47;5124244;27;20608;-51
2022/04/25 06:00:16;;;;;;;10.55;7.63;;;;;;;8.94;100.00;98483.41;5124586;27;20051;-51
2022/04/25 06:03:02;;;;;;;9.23;7.32;;;;;;;9.16;100.00;98481.63;5124487;27;20545;-50
2022/04/25 06:05:46;;;;;;;12.20;8.00;;;;;;;9.21;100.00;98494.53;5124275;27;20081;-50
2022/04/25 06:08:30;;;;;;;11.30;8.60;;;;;;;8.84;100.00;98496.00;5124436;27;20047;-50
2022/04/25 06:11:15;;;;;;;13.60;8.93;;;;;;;9.04;100.00;98492.59;5101502;27;20051;-51
2022/04/25 06:14:02;;;;;;;10.23;8.98;;;;;;;9.17;100.00;98496.41;5124694;27;20047;-51
2022/04/25 06:16:46;;;;;;;11.50;9.18;;;;;;;9.20;100.00;98498.06;5123634;27;20059;-49
2022/04/25 06:19:30;;;;;;;10.82;8.82;;;;;;;9.20;100.00;98496.28;5124167;27;20055;-51
2022/04/25 06:22:18;;;;;;;9.27;7.88;;;;;;;9.16;100.00;98502.53;5123724;27;20055;-51
2022/04/25 06:25:03;;;;;;;9.80;8.55;;;;;;;9.37;100.00;98498.22;5123343;27;20527;-51
2022/04/25 06:27:48;;;;;;;11.07;8.73;;;;;;;9.51;100.00;98502.88;5123456;27;20057;-50
2022/04/25 06:30:32;;;;;;;13.10;8.82;;;;;;;9.74;100.00;98505.38;5124244;27;20241;-51
2022/04/25 06:33:17;;;;;;;9.88;8.73;;;;;;;9.71;100.00;98499.41;5122814;27;20070;-51
2022/04/25 06:36:02;;;;;;;11.50;10.23;;;;;;;9.70;100.00;98508.19;5122807;27;20042;-51
2022/04/25 06:38:47;;;;;;;9.95;8.73;;;;;;;9.62;100.00;98515.47;5116080;27;20134;-51
2022/04/25 06:41:32;;;;;;;11.35;8.25;;;;;;;9.79;100.00;98513.88;5118779;27;20126;-51
2022/04/25 06:44:19;;;;;;;14.35;9.18;;;;;;;9.83;100.00;98515.44;5118332;27;20047;-51
2022/04/25 06:47:05;;;;;;;10.65;8.93;;;;;;;9.73;100.00;98511.53;5124230;27;20730;-51
2022/04/25 06:49:51;;;;;;;9.75;8.27;;;;;;;9.76;100.00;98513.16;5110803;27;20043;-52
2022/04/25 06:52:36;;;;;;;9.60;8.35;;;;;;;9.60;100.00;98513.78;5124329;27;20135;-51
2022/04/25 06:55:21;;;;;;;9.88;7.85;;;;;;;9.33;100.00;98510.56;5124150;27;20474;-51
2022/04/25 06:58:06;;;;;;;10.27;7.88;;;;;;;9.49;100.00;98520.38;5123757;27;20051;-51
2022/04/25 07:00:51;;;;;;;10.15;8.57;;;;;;;9.41;100.00;98517.22;5124724;27;20054;-51
2022/04/25 07:03:35;;;;;;;9.68;8.63;;;;;;;9.27;100.00;98533.47;5105071;27;20085;-51
2022/04/25 07:06:19;;;;;;;10.27;8.73;;;;;;;9.05;100.00;98530.84;5123238;27;20043;-51
2022/04/25 07:09:04;;;;;;;10.75;8.85;;;;;;;9.35;100.00;98539.22;5124733;27;20440;-51
2022/04/25 07:11:49;;;;;;;10.00;8.98;;;;;;;9.15;100.00;98533.94;5124515;27;20535;-51
2022/04/25 07:14:33;;;;;;;12.23;9.35;;;;;;;9.14;100.00;98540.94;5124603;27;20047;-51
2022/04/25 07:17:18;;;;;;;10.13;8.18;;;;;;;9.19;100.00;98551.19;5121322;27;20043;-51
2022/04/25 07:20:02;;;;;;;10.45;8.52;;;;;;;9.22;100.00;98549.31;5125701;27;20562;-51
2022/04/25 07:28:53;;;;;;;9.70;8.50;;;;;;;8.99;100.00;98562.44;5123301;27;20051;-51
2022/04/25 07:31:37;;;;;;;15.15;11.73;;;;;;;9.15;100.00;98566.16;5123492;27;20182;-51
2022/04/25 07:34:22;;;;;;;12.35;8.50;;;;;;;9.01;100.00;98569.28;5122796;27;20078;-52
2022/04/25 07:37:07;;;;;;;8.98;8.07;;;;;;;9.02;100.00;98575.38;5120838;27;20059;-51
2022/04/25 07:39:52;;;;;;;10.18;8.55;;;;;;;9.10;100.00;98570.72;5122713;27;20051;-52
2022/04/25 07:42:38;;;;;;;11.10;8.95;;;;;;;9.23;100.00;98576.28;5122919;27;20523;-51
2022/04/25 07:45:23;;;;;;;9.27;7.70;;;;;;;9.33;100.00;98588.09;5122596;27;20596;-52
2022/04/25 07:48:07;;;;;;;10.52;8.30;;;;;;;9.12;100.00;98582.78;5122136;28;20047;-51
2022/04/25 07:50:52;;;;;;;10.10;8.00;;;;;;;8.67;100.00;98590.59;5123066;28;20062;-51
2022/04/25 07:53:37;;;;;;;11.25;8.82;;;;;;;8.91;100.00;98591.44;5121892;28;20047;-51
2022/04/25 07:56:22;;;;;;;8.93;7.82;;;;;;;8.96;100.00;98593.88;5104943;28;20058;-51
2022/04/25 07:59:07;;;;;;;8.65;7.45;;;;;;;8.85;100.00;98600.34;5122248;28;20058;-51
2022/04/25 08:01:51;;;;;;;10.52;8.02;;;;;;;8.76;100.00;98600.69;5122623;28;20248;-51
2022/04/25 08:04:35;;;;;;;8.63;6.20;;;;;;;8.81;100.00;98605.75;5123119;28;20051;-51
2022/04/25 08:07:20;;;;;;;7.38;6.25;;;;;;;9.04;100.00;98612.75;5122189;28;20544;-51
2022/04/25 08:10:05;;;;;;;7.72;6.93;;;;;;;8.99;100.00;98612.03;5124693;28;20055;-51
2022/04/25 08:18:57;;;;;;;7.47;6.60;;;;;;;9.24;100.00;98620.66;5126277;27;20039;-51
2022/04/25 08:21:42;;;;;;;7.88;7.07;;;;;;;9.15;100.00;98618.38;5092565;27;20043;-51
2022/04/25 08:24:27;;;;;;;6.97;6.20;;;;;;;8.84;100.00;98623.94;5129568;27;20096;-52
2022/04/25 08:27:12;;;;;;;7.60;5.80;;;;;;;8.95;100.00;98629.59;5127754;27;20039;-50
2022/04/25 08:29:57;;;;;;;6.43;5.70;;;;;;;8.83;100.00;98628.28;5128436;27;20047;-51
2022/04/25 08:32:41;;;;;;;8.40;7.60;;;;;;;8.84;100.00;98643.06;5128725;27;20051;-50
2022/04/25 08:35:26;;;;;;;11.27;9.05;;;;;;;8.87;100.00;98645.56;5128521;27;20051;-51
2022/04/25 08:38:11;;;;;;;9.68;8.77;;;;;;;8.80;100.00;98651.88;5127908;27;20051;-51
2022/04/25 08:40:57;;;;;;;10.73;9.63;;;;;;;8.76;100.00;98650.28;5128619;27;20055;-51
2022/04/25 08:43:42;;;;;;;19.83;13.60;;;;;;;8.78;100.00;98652.88;5128780;27;20047;-51
2022/04/25 08:46:32;;;;;;;16.65;14.10;;;;;;;8.78;100.00;98656.31;5128608;27;20438;-51
2022/04/25 08:49:19;;;;;;;18.77;15.65;;;;;;;8.83;100.00;98659.59;5126619;27;20051;-51
2022/04/25 08:52:05;;;;;;;12.05;10.85;;;;;;;8.98;100.00;98671.25;5127137;27;20047;-51
2022/04/25 08:54:52;;;;;;;12.15;11.02;;;;;;;9.08;100.00;98674.41;5111128;27;20149;-51
2022/04/25 08:57:36;;;;;;;12.90;11.60;;;;;;;8.72;100.00;98684.41;5126320;27;20068;-51
2022/04/25 09:00:20;;;;;;;92.47;83.65;;;;;;;8.73;100.00;98657.38;5127055;27;20046;-51
2022/04/25 09:03:05;;;;;;;13.73;12.32;;;;;;;8.92;100.00;98684.53;5127032;27;20043;-51
2022/04/25 09:05:49;;;;;;;13.45;12.05;;;;;;;8.75;100.00;98690.38;5126686;27;20046;-51
2022/04/25 09:08:35;;;;;;;14.48;13.02;;;;;;;8.69;100.00;98692.34;5127201;27;20054;-52
2022/04/25 09:14:23;;;;;;;;;;;;;;;8.73;100.00;98697.41;5127767;27;20051;-51
2022/04/25 09:17:08;;;;;;;15.38;13.07;;;;;;;8.58;100.00;98700.53;5126468;27;19931;-51
2022/04/25 09:19:53;;;;;;;32.67;29.48;;;;;;;8.69;100.00;98698.41;5126748;27;20051;-50
2022/04/25 09:22:42;;;;;;;16.63;13.90;;;;;;;8.79;100.00;98694.56;5123405;27;20058;-51
2022/04/25 09:25:27;;;;;;;15.98;12.70;;;;;;;8.84;100.00;98705.72;5126232;27;20054;-51
2022/04/25 09:28:14;;;;;;;18.40;14.98;;;;;;;9.17;100.00;98707.16;5127309;27;20039;-53
2022/04/25 09:31:01;;;;;;;21.75;16.80;;;;;;;9.32;100.00;98717.03;5127526;27;20039;-53
2022/04/25 09:33:46;;;;;;;15.35;13.40;;;;;;;8.94;100.00;98721.03;5126260;27;20044;-52
2022/04/25 09:36:50;;;;;;;18.15;14.60;;;;;;;8.91;100.00;98718.56;5126817;27;20067;-52
2022/04/25 09:39:34;;;;;;;16.80;14.52;;;;;;;9.12;100.00;98726.44;5126710;27;20640;-51
2022/04/25 09:42:27;;;;;;;17.88;13.63;;;;;;;9.30;100.00;98718.88;5108479;27;20054;-51
2022/04/25 09:45:12;;;;;;;19.88;17.77;;;;;;;9.24;100.00;98725.16;5126183;27;20050;-51
2022/04/25 09:47:57;;;;;;;17.02;14.57;;;;;;;9.49;100.00;98730.34;5126643;27;20043;-51
2022/04/25 09:50:44;;;;;;;20.15;16.52;;;;;;;9.25;100.00;98734.69;5126703;27;20042;-51
2022/04/25 09:54:01;;;;;;;17.48;15.27;;;;;;;9.41;100.00;98741.97;5108379;27;20134;-51
2022/04/25 09:56:46;;;;;;;17.52;14.48;;;;;;;9.21;100.00;98740.09;5119514;27;20063;-52
2022/04/25 09:59:43;;;;;;;19.08;16.25;;;;;;;9.21;100.00;98727.91;5125630;27;20039;-51
2022/04/25 10:02:28;;;;;;;18.60;14.52;;;;;;;9.28;100.00;98741.59;5124845;27;20050;-52
2022/04/25 10:05:17;;;;;;;15.23;13.07;;;;;;;8.94;100.00;98727.13;5126167;27;20051;-52
2022/04/25 10:08:04;;;;;;;16.60;14.88;;;;;;;9.08;100.00;98739.69;5125349;27;20485;-52
2022/04/25 10:10:51;;;;;;;21.23;16.92;;;;;;;9.21;100.00;98743.56;5125721;27;20051;-51
2022/04/25 10:13:36;;;;;;;19.15;16.65;;;;;;;9.19;100.00;98745.38;5124503;27;20102;-52
2022/04/25 10:16:21;;;;;;;17.90;15.93;;;;;;;9.23;100.00;98749.59;5125710;27;20043;-52
2022/04/25 10:19:06;;;;;;;19.40;16.60;;;;;;;9.10;100.00;98749.19;5126230;27;20054;-52
2022/04/25 10:21:52;;;;;;;20.25;16.33;;;;;;;9.03;100.00;98754.66;5125758;27;20047;-53
2022/04/25 10:24:37;;;;;;;18.00;15.77;;;;;;;9.24;100.00;98748.69;5124377;27;20046;-51
2022/04/25 10:27:28;;;;;;;83.10;74.15;;;;;;;9.31;100.00;98752.78;5125979;27;20054;-53
2022/04/25 10:30:16;;;;;;;31.35;27.45;;;;;;;9.33;100.00;98763.19;5126394;27;20050;-53
2022/04/25 10:33:22;;;;;;;19.10;16.75;;;;;;;9.24;100.00;98759.13;5104756;27;20055;-52
2022/04/25 10:36:06;;;;;;;19.23;15.57;;;;;;;9.12;100.00;98760.41;5124577;27;20051;-52
2022/04/25 10:38:51;;;;;;;21.42;19.05;;;;;;;9.11;100.00;98776.16;5124947;27;20055;-52
2022/04/25 10:44:45;;;;;;;48.72;42.85;;;;;;;9.03;100.00;98779.03;5124204;27;20050;-52
2022/04/25 10:47:30;;;;;;;30.25;26.48;;;;;;;9.15;100.00;98782.13;5123168;27;20035;-51
2022/04/25 10:50:14;;;;;;;28.02;24.48;;;;;;;9.13;100.00;98784.78;5125306;27;20080;-52
2022/04/25 10:52:59;;;;;;;17.95;16.10;;;;;;;9.06;100.00;98784.13;5126401;27;20443;-52
2022/04/25 10:55:45;;;;;;;16.00;14.15;;;;;;;9.29;100.00;98787.69;5125022;27;20088;-51
2022/04/25 10:58:30;;;;;;;17.90;16.00;;;;;;;9.22;100.00;98791.44;5122462;27;20047;-52
2022/04/25 11:01:44;;;;;;;19.77;17.67;;;;;;;9.32;100.00;98790.19;5125288;27;20059;-52
2022/04/25 11:04:28;;;;;;;22.00;18.35;;;;;;;9.34;100.00;98804.06;5117449;27;20503;-52
2022/04/25 11:07:24;;;;;;;19.73;17.83;;;;;;;9.40;100.00;98803.00;5124497;27;20096;-52
2022/04/25 11:10:41;;;;;;;26.23;17.98;;;;;;;9.26;100.00;98813.94;5125104;27;20497;-51
2022/04/25 11:13:35;;;;;;;18.38;16.38;;;;;;;9.30;100.00;98815.56;5125694;27;20430;-52
2022/04/25 11:16:23;;;;;;;21.48;17.55;;;;;;;9.35;100.00;98819.69;5107857;27;20103;-52
2022/04/25 11:19:19;;;;;;;30.25;23.00;;;;;;;9.26;100.00;98817.44;5125911;27;20051;-52
2022/04/25 11:22:03;;;;;;;30.98;21.65;;;;;;;9.12;100.00;98825.72;5103649;27;20047;-51
2022/04/25 11:24:48;;;;;;;40.53;26.55;;;;;;;9.11;100.00;98820.56;5125043;27;20100;-52
2022/04/25 11:28:08;;;;;;;42.40;23.67;;;;;;;9.24;100.00;98816.63;5124085;27;20573;-52
2022/04/25 11:31:17;;;;;;;26.27;20.90;;;;;;;9.07;100.00;98832.88;5124304;27;20047;-52
2022/04/25 11:34:03;;;;;;;18.30;15.30;;;;;;;9.26;100.00;98827.88;5123185;27;20043;-51
2022/04/25 11:36:49;;;;;;;21.83;14.25;;;;;;;9.20;100.00;98832.47;5121989;27;20103;-52
2022/04/25 11:39:51;;;;;;;114.75;30.52;;;;;;;9.45;100.00;98835.03;5111753;27;20051;-52
2022/04/25 11:42:37;;;;;;;21.93;17.87;;;;;;;9.40;100.00;98843.06;5122330;27;20100;-52
2022/04/25 11:45:22;;;;;;;20.45;16.25;;;;;;;9.23;100.00;98853.22;5122256;27;20408;-51
2022/04/25 11:48:13;;;;;;;22.13;16.85;;;;;;;9.26;100.00;98848.78;5122772;27;20414;-52
2022/04/25 11:50:58;;;;;;;19.77;16.60;;;;;;;9.31;100.00;98846.00;5123561;28;20469;-51
2022/04/25 11:53:45;;;;;;;32.40;17.67;;;;;;;9.26;100.00;98850.50;5127713;27;20047;-53
2022/04/25 11:56:31;;;;;;;17.17;12.80;;;;;;;9.45;100.00;98843.72;5132038;27;20039;-52
2022/04/25 11:59:19;;;;;;;26.55;16.00;;;;;;;9.44;100.00;98862.09;5132178;27;20402;-52
2022/04/25 12:02:03;;;;;;;43.15;18.48;;;;;;;9.41;100.00;98860.44;5132470;27;20493;-52
2022/04/25 12:04:48;;;;;;;20.83;14.57;;;;;;;9.34;100.00;98856.34;5132605;27;20046;-51
2022/04/25 12:07:35;;;;;;;28.63;17.02;;;;;;;9.32;100.00;98864.22;5131609;27;20047;-52
2022/04/25 12:16:33;;;;;;;12.88;10.82;;;;;;;9.64;100.00;98872.69;5131456;27;20477;-52
2022/04/25 12:19:18;;;;;;;15.32;11.77;;;;;;;9.60;100.00;98874.56;5132271;27;20051;-50
2022/04/25 12:22:04;;;;;;;15.10;12.70;;;;;;;9.41;100.00;98876.13;5132207;27;20100;-51
2022/04/25 12:24:48;;;;;;;31.00;19.58;;;;;;;9.43;100.00;98881.31;5131886;27;20050;-52
2022/04/25 12:27:33;;;;;;;16.13;13.27;;;;;;;9.51;100.00;98880.13;5128449;27;20092;-52
2022/04/25 12:30:17;;;;;;;18.85;14.68;;;;;;;9.64;100.00;98877.91;5128100;27;20120;-52
2022/04/25 12:33:08;;;;;;;14.00;12.27;;;;;;;9.48;100.00;98893.28;5127695;27;20039;-52
2022/04/25 12:50:03;;;;;;;18.75;15.32;;;;;;;9.53;100.00;98901.00;5183503;27;20162;-51
2022/04/25 12:52:49;;;;;;;25.40;20.10;;;;;;;9.47;100.00;98909.03;5173288;27;20042;-51
2022/04/25 12:55:48;;;;;;;19.23;16.23;;;;;;;9.41;100.00;98907.47;5171059;27;20074;-50
2022/04/25 12:58:35;;;;;;;20.42;16.70;;;;;;;9.55;100.00;98918.34;5174091;27;20086;-51
2022/04/25 13:01:35;;;;;;;25.40;20.50;;;;;;;9.54;100.00;98920.97;5172807;27;20155;-52
2022/04/25 13:04:21;;;;;;;24.40;17.75;;;;;;;9.63;100.00;98925.06;5160035;27;20403;-51
2022/04/25 13:07:05;;;;;;;23.17;18.70;;;;;;;9.41;100.00;98932.78;5154092;27;20042;-52
2022/04/25 13:09:55;;;;;;;29.58;20.85;;;;;;;9.33;100.00;98930.44;5153197;27;20038;-51
2022/04/25 13:12:52;;;;;;;26.02;19.83;;;;;;;9.46;100.00;98931.72;5169160;27;20646;-51
2022/04/25 13:15:38;;;;;;;19.55;17.15;;;;;;;9.62;100.00;98937.28;5156884;27;20042;-51
2022/04/25 13:18:22;;;;;;;22.20;17.85;;;;;;;9.56;100.00;98937.47;5152648;27;20042;-51
2022/04/25 13:21:08;;;;;;;22.50;19.30;;;;;;;9.69;100.00;98930.91;5155245;27;20073;-52
2022/04/25 13:23:53;;;;;;;26.95;22.20;;;;;;;9.54;100.00;98931.44;5154473;27;20047;-51
2022/04/25 13:26:38;;;;;;;28.92;23.58;;;;;;;9.73;100.00;98937.75;5154824;27;20051;-51
2022/04/25 13:29:23;;;;;;;28.00;22.85;;;;;;;9.72;100.00;98940.41;5155808;27;20074;-52
2022/04/25 13:32:11;;;;;;;24.45;20.88;;;;;;;9.52;100.00;98943.69;5154380;27;20049;-52
2022/04/25 13:34:55;;;;;;;39.58;24.40;;;;;;;9.68;100.00;98939.66;5154929;27;20050;-52
2022/04/25 13:37:41;;;;;;;30.67;22.90;;;;;;;9.65;100.00;98944.13;5153098;27;20042;-51
2022/04/25 13:40:25;;;;;;;29.30;23.52;;;;;;;9.56;100.00;98951.41;5154796;27;20078;-52